sensor_id;sensor_type;location;lat;lon;timestamp;P1;durP1;ratioP1;P2;durP2;ratioP2
66587;SDS011;53446;50.076;8.198;2022-08-21T00:00:00;7.18;;;2.85;;
66587;SDS011;53446;50.076;8.198;2022-08-21T00:02:01;9.00;;;2.93;;
66587;SDS011;53446;50.076;8.198;2022-08-21T00:04:06;8.32;;;2.85;;
66587;SDS011;53446;50.076;8.198;2022-08-21T00:06:07;8.97;;;2.83;;
66587;SDS011;53446;50.076;8.198;2022-08-21T00:08:07;9.35;;;2.75;;
66587;SDS011;53446;50.076;8.198;2022-08-21T00:10:08;8.60;;;2.87;;
66587;SDS011;53446;50.076;8.198;2022-08-21T00:12:09;8.70;;;2.90;;
66587;SDS011;53446;50.076;8.198;2022-08-21T00:14:10;6.40;;;2.67;;
66587;SDS011;53446;50.076;8.198;2022-08-21T00:16:11;9.73;;;2.92;;
66587;SDS011;53446;50.076;8.198;2022-08-21T00:18:11;7.40;;;2.83;;
66587;SDS011;53446;50.076;8.198;2022-08-21T00:20:12;9.07;;;2.83;;
66587;SDS011;53446;50.076;8.198;2022-08-21T00:22:14;7.63;;;2.80;;
66587;SDS011;53446;50.076;8.198;2022-08-21T00:24:14;8.73;;;2.88;;
66587;SDS011;53446;50.076;8.198;2022-08-21T00:26:14;8.90;;;3.25;;
66587;SDS011;53446;50.076;8.198;2022-08-21T00:28:15;8.87;;;2.80;;
66587;SDS011;53446;50.076;8.198;2022-08-21T00:30:16;9.43;;;2.80;;
66587;SDS011;53446;50.076;8.198;2022-08-21T00:32:21;6.25;;;2.60;;
66587;SDS011;53446;50.076;8.198;2022-08-21T00:34:22;7.28;;;3.03;;
66587;SDS011;53446;50.076;8.198;2022-08-21T00:36:23;7.33;;;2.90;;
66587;SDS011;53446;50.076;8.198;2022-08-21T00:38:23;8.90;;;3.13;;
66587;SDS011;53446;50.076;8.198;2022-08-21T00:40:25;7.30;;;2.90;;
66587;SDS011;53446;50.076;8.198;2022-08-21T00:42:32;8.45;;;2.72;;
66587;SDS011;53446;50.076;8.198;2022-08-21T00:44:32;8.77;;;2.97;;
66587;SDS011;53446;50.076;8.198;2022-08-21T00:46:32;6.57;;;2.70;;
66587;SDS011;53446;50.076;8.198;2022-08-21T00:48:33;7.23;;;2.90;;
66587;SDS011;53446;50.076;8.198;2022-08-21T00:50:35;9.02;;;2.95;;
66587;SDS011;53446;50.076;8.198;2022-08-21T00:52:39;8.88;;;3.22;;
66587;SDS011;53446;50.076;8.198;2022-08-21T00:54:40;11.03;;;3.40;;
66587;SDS011;53446;50.076;8.198;2022-08-21T00:56:41;8.00;;;3.22;;
66587;SDS011;53446;50.076;8.198;2022-08-21T00:58:42;8.30;;;2.90;;
66587;SDS011;53446;50.076;8.198;2022-08-21T01:00:43;7.95;;;2.83;;
66587;SDS011;53446;50.076;8.198;2022-08-21T01:02:45;8.52;;;3.00;;
66587;SDS011;53446;50.076;8.198;2022-08-21T01:04:46;9.07;;;3.03;;
66587;SDS011;53446;50.076;8.198;2022-08-21T01:06:46;10.80;;;3.50;;
66587;SDS011;53446;50.076;8.198;2022-08-21T01:08:46;8.90;;;3.25;;
66587;SDS011;53446;50.076;8.198;2022-08-21T01:10:47;7.72;;;3.00;;
66587;SDS011;53446;50.076;8.198;2022-08-21T01:12:48;9.40;;;3.33;;
66587;SDS011;53446;50.076;8.198;2022-08-21T01:14:48;10.32;;;3.45;;
66587;SDS011;53446;50.076;8.198;2022-08-21T01:16:50;9.07;;;3.07;;
66587;SDS011;53446;50.076;8.198;2022-08-21T01:18:51;8.07;;;2.97;;
66587;SDS011;53446;50.076;8.198;2022-08-21T01:21:08;7.63;;;3.50;;
66587;SDS011;53446;50.076;8.198;2022-08-21T01:23:13;7.93;;;3.05;;
66587;SDS011;53446;50.076;8.198;2022-08-21T01:25:14;7.53;;;3.20;;
66587;SDS011;53446;50.076;8.198;2022-08-21T01:27:19;8.45;;;3.97;;
66587;SDS011;53446;50.076;8.198;2022-08-21T01:31:47;7.38;;;2.90;;
66587;SDS011;53446;50.076;8.198;2022-08-21T01:33:47;9.55;;;3.10;;
66587;SDS011;53446;50.076;8.198;2022-08-21T01:35:47;7.67;;;3.20;;
66587;SDS011;53446;50.076;8.198;2022-08-21T01:37:48;8.13;;;3.10;;
66587;SDS011;53446;50.076;8.198;2022-08-21T01:39:48;11.97;;;3.20;;
66587;SDS011;53446;50.076;8.198;2022-08-21T01:41:49;9.52;;;3.35;;
66587;SDS011;53446;50.076;8.198;2022-08-21T01:43:49;7.50;;;3.50;;
66587;SDS011;53446;50.076;8.198;2022-08-21T01:45:49;7.67;;;3.40;;
66587;SDS011;53446;50.076;8.198;2022-08-21T01:47:51;7.72;;;3.15;;
66587;SDS011;53446;50.076;8.198;2022-08-21T01:49:51;8.47;;;3.53;;
66587;SDS011;53446;50.076;8.198;2022-08-21T01:51:51;5.67;;;2.90;;
66587;SDS011;53446;50.076;8.198;2022-08-21T01:53:52;9.73;;;3.67;;
66587;SDS011;53446;50.076;8.198;2022-08-21T01:55:52;8.38;;;3.70;;
66587;SDS011;53446;50.076;8.198;2022-08-21T10:14:31;10.98;;;4.20;;
66587;SDS011;53446;50.076;8.198;2022-08-21T10:23:35;14.63;;;3.67;;
66587;SDS011;53446;50.076;8.198;2022-08-21T10:26:31;9.07;;;3.30;;
66587;SDS011;53446;50.076;8.198;2022-08-21T10:28:32;12.50;;;4.00;;
66587;SDS011;53446;50.076;8.198;2022-08-21T10:30:38;8.83;;;3.60;;
66587;SDS011;53446;50.076;8.198;2022-08-21T10:32:57;8.48;;;3.65;;
66587;SDS011;53446;50.076;8.198;2022-08-21T10:35:18;9.50;;;3.83;;
66587;SDS011;53446;50.076;8.198;2022-08-21T10:37:30;10.27;;;3.50;;
66587;SDS011;53446;50.076;8.198;2022-08-21T10:39:45;8.25;;;3.40;;
66587;SDS011;53446;50.076;8.198;2022-08-21T10:42:14;9.27;;;3.57;;
66587;SDS011;53446;50.076;8.198;2022-08-21T10:44:30;9.90;;;3.90;;
66587;SDS011;53446;50.076;8.198;2022-08-21T10:46:51;9.30;;;3.70;;
66587;SDS011;53446;50.076;8.198;2022-08-21T10:48:58;12.23;;;3.60;;
66587;SDS011;53446;50.076;8.198;2022-08-21T10:51:10;12.15;;;4.07;;
66587;SDS011;53446;50.076;8.198;2022-08-21T10:53:28;9.60;;;3.70;;
66587;SDS011;53446;50.076;8.198;2022-08-21T10:55:36;8.30;;;3.58;;
66587;SDS011;53446;50.076;8.198;2022-08-21T10:57:46;11.73;;;3.58;;
66587;SDS011;53446;50.076;8.198;2022-08-21T10:59:53;9.90;;;3.55;;
66587;SDS011;53446;50.076;8.198;2022-08-21T11:02:01;9.95;;;3.78;;
66587;SDS011;53446;50.076;8.198;2022-08-21T11:04:10;10.30;;;3.57;;
66587;SDS011;53446;50.076;8.198;2022-08-21T11:06:25;9.15;;;3.58;;
66587;SDS011;53446;50.076;8.198;2022-08-21T11:08:35;10.05;;;3.58;;
66587;SDS011;53446;50.076;8.198;2022-08-21T11:10:40;8.73;;;3.38;;
66587;SDS011;53446;50.076;8.198;2022-08-21T11:15:51;9.20;;;3.50;;
66587;SDS011;53446;50.076;8.198;2022-08-21T11:20:20;8.30;;;3.78;;
66587;SDS011;53446;50.076;8.198;2022-08-21T11:22:28;6.57;;;3.28;;
66587;SDS011;53446;50.076;8.198;2022-08-21T11:26:54;8.47;;;3.20;;
66587;SDS011;53446;50.076;8.198;2022-08-21T11:29:10;6.60;;;3.22;;
66587;SDS011;53446;50.076;8.198;2022-08-21T11:31:25;9.98;;;3.80;;
66587;SDS011;53446;50.076;8.198;2022-08-21T11:35:39;7.55;;;3.30;;
66587;SDS011;53446;50.076;8.198;2022-08-21T11:40:03;8.30;;;3.28;;
66587;SDS011;53446;50.076;8.198;2022-08-21T11:46:40;9.30;;;3.85;;
66587;SDS011;53446;50.076;8.198;2022-08-21T11:51:00;8.25;;;3.65;;
66587;SDS011;53446;50.076;8.198;2022-08-21T11:55:09;7.82;;;3.13;;
66587;SDS011;53446;50.076;8.198;2022-08-21T11:57:22;8.07;;;3.90;;
66587;SDS011;53446;50.076;8.198;2022-08-21T11:59:41;8.73;;;3.65;;
66587;SDS011;53446;50.076;8.198;2022-08-21T12:01:47;8.90;;;3.47;;
66587;SDS011;53446;50.076;8.198;2022-08-21T12:04:01;6.97;;;3.33;;
66587;SDS011;53446;50.076;8.198;2022-08-21T12:06:10;6.93;;;3.10;;
66587;SDS011;53446;50.076;8.198;2022-08-21T12:08:13;12.52;;;3.78;;
66587;SDS011;53446;50.076;8.198;2022-08-21T12:10:31;8.70;;;3.63;;
66587;SDS011;53446;50.076;8.198;2022-08-21T12:12:37;7.57;;;3.15;;
66587;SDS011;53446;50.076;8.198;2022-08-21T12:14:43;7.90;;;3.45;;
66587;SDS011;53446;50.076;8.198;2022-08-21T12:16:48;6.25;;;2.97;;
66587;SDS011;53446;50.076;8.198;2022-08-21T12:18:49;6.82;;;3.20;;
66587;SDS011;53446;50.076;8.198;2022-08-21T12:21:02;6.43;;;3.42;;
66587;SDS011;53446;50.076;8.198;2022-08-21T12:25:16;9.20;;;3.45;;
66587;SDS011;53446;50.076;8.198;2022-08-21T12:29:21;9.18;;;3.90;;
66587;SDS011;53446;50.076;8.198;2022-08-21T12:31:27;9.50;;;3.60;;
66587;SDS011;53446;50.076;8.198;2022-08-21T12:35:37;6.95;;;3.08;;
66587;SDS011;53446;50.076;8.198;2022-08-21T12:37:41;8.20;;;3.10;;
66587;SDS011;53446;50.076;8.198;2022-08-21T12:39:43;7.47;;;3.15;;
66587;SDS011;53446;50.076;8.198;2022-08-21T12:41:47;7.53;;;3.30;;
66587;SDS011;53446;50.076;8.198;2022-08-21T12:43:52;7.20;;;2.85;;
66587;SDS011;53446;50.076;8.198;2022-08-21T12:45:57;9.57;;;3.03;;
66587;SDS011;53446;50.076;8.198;2022-08-21T12:50:11;8.15;;;3.33;;
66587;SDS011;53446;50.076;8.198;2022-08-21T12:52:23;6.13;;;2.45;;
66587;SDS011;53446;50.076;8.198;2022-08-21T12:54:26;7.97;;;2.88;;
66587;SDS011;53446;50.076;8.198;2022-08-21T12:56:30;8.43;;;2.97;;
66587;SDS011;53446;50.076;8.198;2022-08-21T12:58:31;7.07;;;3.07;;
66587;SDS011;53446;50.076;8.198;2022-08-21T13:00:31;10.32;;;3.40;;
66587;SDS011;53446;50.076;8.198;2022-08-21T13:02:33;7.93;;;3.10;;
66587;SDS011;53446;50.076;8.198;2022-08-21T13:04:38;8.47;;;3.23;;
66587;SDS011;53446;50.076;8.198;2022-08-21T13:06:41;8.55;;;3.00;;
66587;SDS011;53446;50.076;8.198;2022-08-21T13:08:44;6.90;;;3.00;;
66587;SDS011;53446;50.076;8.198;2022-08-21T13:10:46;8.50;;;3.17;;
66587;SDS011;53446;50.076;8.198;2022-08-21T13:12:47;7.53;;;3.28;;
66587;SDS011;53446;50.076;8.198;2022-08-21T13:14:48;6.10;;;2.90;;
66587;SDS011;53446;50.076;8.198;2022-08-21T13:16:54;7.05;;;3.00;;
66587;SDS011;53446;50.076;8.198;2022-08-21T13:18:57;6.72;;;2.78;;
66587;SDS011;53446;50.076;8.198;2022-08-21T13:21:07;7.50;;;2.57;;
66587;SDS011;53446;50.076;8.198;2022-08-21T13:25:28;6.53;;;2.70;;
66587;SDS011;53446;50.076;8.198;2022-08-21T13:27:30;5.93;;;2.70;;
66587;SDS011;53446;50.076;8.198;2022-08-21T13:29:31;7.60;;;2.67;;
66587;SDS011;53446;50.076;8.198;2022-08-21T13:31:34;6.65;;;2.95;;
66587;SDS011;53446;50.076;8.198;2022-08-21T13:33:35;6.77;;;3.10;;
66587;SDS011;53446;50.076;8.198;2022-08-21T13:35:44;7.47;;;2.92;;
66587;SDS011;53446;50.076;8.198;2022-08-21T13:37:48;5.60;;;3.05;;
66587;SDS011;53446;50.076;8.198;2022-08-21T13:39:51;8.03;;;3.07;;
66587;SDS011;53446;50.076;8.198;2022-08-21T13:41:54;5.78;;;2.50;;
66587;SDS011;53446;50.076;8.198;2022-08-21T13:43:59;8.38;;;3.10;;
66587;SDS011;53446;50.076;8.198;2022-08-21T13:46:02;7.88;;;3.00;;
66587;SDS011;53446;50.076;8.198;2022-08-21T13:48:07;8.07;;;3.00;;
66587;SDS011;53446;50.076;8.198;2022-08-21T13:50:08;8.27;;;3.33;;
66587;SDS011;53446;50.076;8.198;2022-08-21T13:52:15;7.13;;;3.10;;
66587;SDS011;53446;50.076;8.198;2022-08-21T13:54:21;7.35;;;2.97;;
66587;SDS011;53446;50.076;8.198;2022-08-21T13:56:27;10.48;;;3.45;;
66587;SDS011;53446;50.076;8.198;2022-08-21T13:58:30;6.68;;;2.90;;
66587;SDS011;53446;50.076;8.198;2022-08-21T14:00:46;7.00;;;3.03;;
66587;SDS011;53446;50.076;8.198;2022-08-21T14:02:48;6.93;;;3.20;;
66587;SDS011;53446;50.076;8.198;2022-08-21T14:04:54;7.93;;;3.50;;
66587;SDS011;53446;50.076;8.198;2022-08-21T14:06:57;8.32;;;3.38;;
66587;SDS011;53446;50.076;8.198;2022-08-21T14:08:58;7.87;;;3.40;;
66587;SDS011;53446;50.076;8.198;2022-08-21T14:11:00;7.13;;;2.80;;
66587;SDS011;53446;50.076;8.198;2022-08-21T14:13:05;7.45;;;3.42;;
66587;SDS011;53446;50.076;8.198;2022-08-21T14:15:07;7.13;;;2.83;;
66587;SDS011;53446;50.076;8.198;2022-08-21T14:17:09;7.03;;;3.13;;
66587;SDS011;53446;50.076;8.198;2022-08-21T14:19:23;8.60;;;3.35;;
66587;SDS011;53446;50.076;8.198;2022-08-21T14:21:33;8.07;;;3.33;;
66587;SDS011;53446;50.076;8.198;2022-08-21T14:23:35;7.75;;;3.17;;
66587;SDS011;53446;50.076;8.198;2022-08-21T14:25:42;8.37;;;2.93;;
66587;SDS011;53446;50.076;8.198;2022-08-21T14:27:54;6.88;;;3.35;;
66587;SDS011;53446;50.076;8.198;2022-08-21T14:30:09;6.80;;;2.92;;
66587;SDS011;53446;50.076;8.198;2022-08-21T14:32:20;6.45;;;3.00;;
66587;SDS011;53446;50.076;8.198;2022-08-21T14:34:21;6.63;;;2.63;;
66587;SDS011;53446;50.076;8.198;2022-08-21T14:36:22;5.90;;;2.30;;
66587;SDS011;53446;50.076;8.198;2022-08-21T14:38:24;4.80;;;2.40;;
66587;SDS011;53446;50.076;8.198;2022-08-21T14:40:26;6.22;;;2.70;;
66587;SDS011;53446;50.076;8.198;2022-08-21T14:42:27;7.10;;;2.85;;
66587;SDS011;53446;50.076;8.198;2022-08-21T14:44:28;5.68;;;2.10;;
66587;SDS011;53446;50.076;8.198;2022-08-21T14:46:29;6.70;;;2.85;;
66587;SDS011;53446;50.076;8.198;2022-08-21T14:48:30;6.43;;;2.67;;
66587;SDS011;53446;50.076;8.198;2022-08-21T14:50:30;5.67;;;2.70;;
66587;SDS011;53446;50.076;8.198;2022-08-21T14:52:31;4.90;;;2.40;;
66587;SDS011;53446;50.076;8.198;2022-08-21T14:54:32;6.63;;;2.83;;
66587;SDS011;53446;50.076;8.198;2022-08-21T14:56:34;6.10;;;2.50;;
66587;SDS011;53446;50.076;8.198;2022-08-21T14:58:36;6.93;;;2.35;;
66587;SDS011;53446;50.076;8.198;2022-08-21T15:00:37;5.70;;;2.00;;
66587;SDS011;53446;50.076;8.198;2022-08-21T15:02:37;8.27;;;2.30;;
66587;SDS011;53446;50.076;8.198;2022-08-21T15:04:38;5.27;;;2.20;;
66587;SDS011;53446;50.076;8.198;2022-08-21T15:06:38;5.60;;;2.40;;
66587;SDS011;53446;50.076;8.198;2022-08-21T15:08:39;7.13;;;2.60;;
66587;SDS011;53446;50.076;8.198;2022-08-21T15:10:39;5.27;;;2.27;;
66587;SDS011;53446;50.076;8.198;2022-08-21T15:12:39;7.30;;;2.40;;
66587;SDS011;53446;50.076;8.198;2022-08-21T15:14:40;6.57;;;2.10;;
66587;SDS011;53446;50.076;8.198;2022-08-21T15:16:41;8.63;;;2.40;;
66587;SDS011;53446;50.076;8.198;2022-08-21T15:18:42;5.90;;;2.00;;
66587;SDS011;53446;50.076;8.198;2022-08-21T15:20:42;7.15;;;2.40;;
66587;SDS011;53446;50.076;8.198;2022-08-21T15:22:42;5.80;;;2.20;;
66587;SDS011;53446;50.076;8.198;2022-08-21T15:24:43;6.50;;;2.10;;
66587;SDS011;53446;50.076;8.198;2022-08-21T15:26:43;6.70;;;2.00;;
66587;SDS011;53446;50.076;8.198;2022-08-21T15:28:44;5.15;;;2.22;;
66587;SDS011;53446;50.076;8.198;2022-08-21T15:30:44;6.63;;;2.40;;
66587;SDS011;53446;50.076;8.198;2022-08-21T15:32:45;5.40;;;2.30;;
66587;SDS011;53446;50.076;8.198;2022-08-21T15:34:45;7.90;;;2.50;;
66587;SDS011;53446;50.076;8.198;2022-08-21T15:36:45;6.93;;;2.00;;
66587;SDS011;53446;50.076;8.198;2022-08-21T15:38:46;4.87;;;2.00;;
66587;SDS011;53446;50.076;8.198;2022-08-21T15:40:46;6.47;;;2.42;;
66587;SDS011;53446;50.076;8.198;2022-08-21T15:42:46;6.13;;;2.70;;
66587;SDS011;53446;50.076;8.198;2022-08-21T15:44:47;6.20;;;2.47;;
66587;SDS011;53446;50.076;8.198;2022-08-21T15:46:47;5.53;;;2.37;;
66587;SDS011;53446;50.076;8.198;2022-08-21T15:48:48;10.98;;;2.75;;
66587;SDS011;53446;50.076;8.198;2022-08-21T15:50:48;5.85;;;2.75;;
66587;SDS011;53446;50.076;8.198;2022-08-21T15:52:49;5.27;;;2.60;;
66587;SDS011;53446;50.076;8.198;2022-08-21T15:54:49;4.68;;;2.30;;
66587;SDS011;53446;50.076;8.198;2022-08-21T15:56:50;5.22;;;2.00;;
66587;SDS011;53446;50.076;8.198;2022-08-21T15:58:52;6.32;;;2.22;;
66587;SDS011;53446;50.076;8.198;2022-08-21T16:00:53;5.20;;;2.08;;
66587;SDS011;53446;50.076;8.198;2022-08-21T16:02:55;5.23;;;2.00;;
66587;SDS011;53446;50.076;8.198;2022-08-21T16:04:57;7.75;;;2.63;;
66587;SDS011;53446;50.076;8.198;2022-08-21T16:06:58;4.75;;;1.80;;
66587;SDS011;53446;50.076;8.198;2022-08-21T16:08:58;5.47;;;1.90;;
66587;SDS011;53446;50.076;8.198;2022-08-21T16:10:59;6.05;;;2.00;;
66587;SDS011;53446;50.076;8.198;2022-08-21T16:13:04;5.77;;;2.00;;
66587;SDS011;53446;50.076;8.198;2022-08-21T16:15:08;6.57;;;2.10;;
66587;SDS011;53446;50.076;8.198;2022-08-21T16:17:09;5.93;;;2.20;;
66587;SDS011;53446;50.076;8.198;2022-08-21T16:19:10;6.60;;;1.90;;
66587;SDS011;53446;50.076;8.198;2022-08-21T16:21:11;6.53;;;2.08;;
66587;SDS011;53446;50.076;8.198;2022-08-21T16:23:11;6.13;;;1.90;;
66587;SDS011;53446;50.076;8.198;2022-08-21T16:25:13;5.77;;;1.97;;
66587;SDS011;53446;50.076;8.198;2022-08-21T16:27:14;5.78;;;2.00;;
66587;SDS011;53446;50.076;8.198;2022-08-21T16:29:16;5.83;;;1.97;;
66587;SDS011;53446;50.076;8.198;2022-08-21T16:31:17;6.43;;;1.90;;
66587;SDS011;53446;50.076;8.198;2022-08-21T16:33:21;5.63;;;1.80;;
66587;SDS011;53446;50.076;8.198;2022-08-21T16:35:24;5.13;;;1.80;;
66587;SDS011;53446;50.076;8.198;2022-08-21T16:37:24;5.70;;;1.97;;
66587;SDS011;53446;50.076;8.198;2022-08-21T16:39:25;6.37;;;2.07;;
66587;SDS011;53446;50.076;8.198;2022-08-21T16:41:26;5.27;;;1.90;;
66587;SDS011;53446;50.076;8.198;2022-08-21T16:43:28;5.18;;;2.00;;
66587;SDS011;53446;50.076;8.198;2022-08-21T16:45:29;5.93;;;1.83;;
66587;SDS011;53446;50.076;8.198;2022-08-21T16:47:29;4.67;;;1.73;;
66587;SDS011;53446;50.076;8.198;2022-08-21T16:49:30;5.75;;;1.95;;
66587;SDS011;53446;50.076;8.198;2022-08-21T16:51:31;5.40;;;1.80;;
66587;SDS011;53446;50.076;8.198;2022-08-21T16:53:31;5.55;;;1.90;;
66587;SDS011;53446;50.076;8.198;2022-08-21T16:55:33;5.50;;;1.77;;
66587;SDS011;53446;50.076;8.198;2022-08-21T16:57:34;5.70;;;1.65;;
66587;SDS011;53446;50.076;8.198;2022-08-21T16:59:36;5.53;;;1.90;;
66587;SDS011;53446;50.076;8.198;2022-08-21T17:01:37;7.10;;;1.85;;
66587;SDS011;53446;50.076;8.198;2022-08-21T17:03:40;4.67;;;1.83;;
66587;SDS011;53446;50.076;8.198;2022-08-21T17:05:45;4.55;;;1.67;;
66587;SDS011;53446;50.076;8.198;2022-08-21T17:07:45;7.83;;;2.33;;
66587;SDS011;53446;50.076;8.198;2022-08-21T17:09:45;4.47;;;1.88;;
66587;SDS011;53446;50.076;8.198;2022-08-21T17:11:46;4.82;;;2.08;;
66587;SDS011;53446;50.076;8.198;2022-08-21T17:13:48;5.67;;;2.13;;
66587;SDS011;53446;50.076;8.198;2022-08-21T17:15:48;5.53;;;2.00;;
66587;SDS011;53446;50.076;8.198;2022-08-21T17:17:49;5.43;;;1.97;;
66587;SDS011;53446;50.076;8.198;2022-08-21T17:19:50;4.63;;;1.80;;
66587;SDS011;53446;50.076;8.198;2022-08-21T17:21:50;5.20;;;1.87;;
66587;SDS011;53446;50.076;8.198;2022-08-21T17:23:51;5.47;;;2.15;;
66587;SDS011;53446;50.076;8.198;2022-08-21T17:25:51;5.32;;;2.00;;
66587;SDS011;53446;50.076;8.198;2022-08-21T17:27:52;6.45;;;2.45;;
66587;SDS011;53446;50.076;8.198;2022-08-21T17:29:54;5.32;;;2.47;;
66587;SDS011;53446;50.076;8.198;2022-08-21T17:31:55;6.37;;;2.40;;
66587;SDS011;53446;50.076;8.198;2022-08-21T17:33:56;5.55;;;2.10;;
66587;SDS011;53446;50.076;8.198;2022-08-21T17:35:56;5.97;;;2.20;;
66587;SDS011;53446;50.076;8.198;2022-08-21T17:37:56;6.37;;;1.80;;
66587;SDS011;53446;50.076;8.198;2022-08-21T17:39:57;6.67;;;2.00;;
66587;SDS011;53446;50.076;8.198;2022-08-21T17:41:58;6.20;;;2.10;;
66587;SDS011;53446;50.076;8.198;2022-08-21T17:44:02;7.30;;;2.13;;
66587;SDS011;53446;50.076;8.198;2022-08-21T17:46:05;5.47;;;2.20;;
66587;SDS011;53446;50.076;8.198;2022-08-21T17:48:06;7.43;;;2.05;;
66587;SDS011;53446;50.076;8.198;2022-08-21T17:50:07;5.03;;;2.00;;
66587;SDS011;53446;50.076;8.198;2022-08-21T17:52:09;5.28;;;1.92;;
66587;SDS011;53446;50.076;8.198;2022-08-21T17:54:09;4.47;;;1.70;;
66587;SDS011;53446;50.076;8.198;2022-08-21T17:56:11;5.80;;;2.20;;
66587;SDS011;53446;50.076;8.198;2022-08-21T17:58:12;4.40;;;1.90;;
66587;SDS011;53446;50.076;8.198;2022-08-21T18:00:14;4.25;;;1.73;;
66587;SDS011;53446;50.076;8.198;2022-08-21T18:02:15;4.73;;;1.60;;
66587;SDS011;53446;50.076;8.198;2022-08-21T18:04:16;4.88;;;1.90;;
66587;SDS011;53446;50.076;8.198;2022-08-21T18:06:17;6.70;;;1.87;;
66587;SDS011;53446;50.076;8.198;2022-08-21T18:08:17;5.60;;;1.90;;
66587;SDS011;53446;50.076;8.198;2022-08-21T18:10:17;6.40;;;2.03;;
66587;SDS011;53446;50.076;8.198;2022-08-21T18:12:18;5.60;;;2.10;;
66587;SDS011;53446;50.076;8.198;2022-08-21T18:14:18;6.90;;;2.40;;
66587;SDS011;53446;50.076;8.198;2022-08-21T18:16:23;5.88;;;2.05;;
66587;SDS011;53446;50.076;8.198;2022-08-21T18:18:23;8.67;;;2.20;;
66587;SDS011;53446;50.076;8.198;2022-08-21T18:20:24;6.35;;;2.15;;
66587;SDS011;53446;50.076;8.198;2022-08-21T18:22:25;6.70;;;2.03;;
66587;SDS011;53446;50.076;8.198;2022-08-21T18:24:26;5.15;;;1.92;;
66587;SDS011;53446;50.076;8.198;2022-08-21T18:26:28;5.80;;;1.93;;
66587;SDS011;53446;50.076;8.198;2022-08-21T18:28:31;5.32;;;2.17;;
66587;SDS011;53446;50.076;8.198;2022-08-21T18:30:31;5.40;;;2.03;;
66587;SDS011;53446;50.076;8.198;2022-08-21T18:32:33;4.47;;;1.83;;
66587;SDS011;53446;50.076;8.198;2022-08-21T18:34:35;6.27;;;1.97;;
66587;SDS011;53446;50.076;8.198;2022-08-21T18:36:39;4.63;;;2.03;;
66587;SDS011;53446;50.076;8.198;2022-08-21T18:38:39;6.43;;;2.80;;
66587;SDS011;53446;50.076;8.198;2022-08-21T18:40:42;6.63;;;2.30;;
66587;SDS011;53446;50.076;8.198;2022-08-21T18:42:44;6.22;;;2.10;;
66587;SDS011;53446;50.076;8.198;2022-08-21T18:44:47;6.53;;;2.10;;
66587;SDS011;53446;50.076;8.198;2022-08-21T18:46:50;5.78;;;2.20;;
66587;SDS011;53446;50.076;8.198;2022-08-21T18:48:54;6.05;;;2.20;;
66587;SDS011;53446;50.076;8.198;2022-08-21T18:50:54;7.07;;;2.10;;
66587;SDS011;53446;50.076;8.198;2022-08-21T18:52:55;6.63;;;1.60;;
66587;SDS011;53446;50.076;8.198;2022-08-21T18:54:55;5.00;;;1.83;;
66587;SDS011;53446;50.076;8.198;2022-08-21T18:56:56;5.07;;;1.70;;
66587;SDS011;53446;50.076;8.198;2022-08-21T18:58:56;6.17;;;2.17;;
66587;SDS011;53446;50.076;8.198;2022-08-21T19:00:57;5.20;;;1.70;;
66587;SDS011;53446;50.076;8.198;2022-08-21T19:02:57;5.53;;;1.90;;
66587;SDS011;53446;50.076;8.198;2022-08-21T19:04:58;5.47;;;1.90;;
66587;SDS011;53446;50.076;8.198;2022-08-21T19:06:59;6.10;;;1.90;;
66587;SDS011;53446;50.076;8.198;2022-08-21T19:08:59;5.00;;;1.77;;
66587;SDS011;53446;50.076;8.198;2022-08-21T19:11:00;7.40;;;2.20;;
66587;SDS011;53446;50.076;8.198;2022-08-21T19:13:01;4.90;;;1.85;;
66587;SDS011;53446;50.076;8.198;2022-08-21T19:15:05;5.28;;;1.90;;
66587;SDS011;53446;50.076;8.198;2022-08-21T19:17:06;7.57;;;2.00;;
66587;SDS011;53446;50.076;8.198;2022-08-21T19:19:07;5.20;;;1.90;;
66587;SDS011;53446;50.076;8.198;2022-08-21T19:21:08;5.07;;;1.80;;
66587;SDS011;53446;50.076;8.198;2022-08-21T19:23:10;6.10;;;1.87;;
66587;SDS011;53446;50.076;8.198;2022-08-21T19:25:11;4.78;;;1.80;;
66587;SDS011;53446;50.076;8.198;2022-08-21T19:27:12;5.97;;;2.17;;
66587;SDS011;53446;50.076;8.198;2022-08-21T19:29:14;5.57;;;1.90;;
66587;SDS011;53446;50.076;8.198;2022-08-21T19:31:16;5.97;;;1.83;;
66587;SDS011;53446;50.076;8.198;2022-08-21T19:33:26;5.70;;;2.00;;
66587;SDS011;53446;50.076;8.198;2022-08-21T19:35:28;6.13;;;1.85;;
66587;SDS011;53446;50.076;8.198;2022-08-21T19:37:29;5.93;;;1.97;;
66587;SDS011;53446;50.076;8.198;2022-08-21T19:39:29;4.50;;;1.87;;
66587;SDS011;53446;50.076;8.198;2022-08-21T19:41:31;4.63;;;1.77;;
66587;SDS011;53446;50.076;8.198;2022-08-21T19:43:33;4.18;;;1.60;;
66587;SDS011;53446;50.076;8.198;2022-08-21T19:45:40;7.18;;;2.08;;
66587;SDS011;53446;50.076;8.198;2022-08-21T19:47:41;6.63;;;2.03;;
66587;SDS011;53446;50.076;8.198;2022-08-21T19:49:49;6.60;;;2.00;;
66587;SDS011;53446;50.076;8.198;2022-08-21T19:51:50;4.75;;;1.52;;
66587;SDS011;53446;50.076;8.198;2022-08-21T19:53:51;6.13;;;1.50;;
66587;SDS011;53446;50.076;8.198;2022-08-21T19:55:52;6.27;;;2.10;;
66587;SDS011;53446;50.076;8.198;2022-08-21T19:57:52;6.20;;;1.90;;
66587;SDS011;53446;50.076;8.198;2022-08-21T19:59:53;5.77;;;1.80;;
66587;SDS011;53446;50.076;8.198;2022-08-21T20:01:54;5.25;;;1.63;;
66587;SDS011;53446;50.076;8.198;2022-08-21T20:03:54;7.22;;;1.95;;
66587;SDS011;53446;50.076;8.198;2022-08-21T20:05:55;5.97;;;1.58;;
66587;SDS011;53446;50.076;8.198;2022-08-21T20:07:55;6.53;;;1.67;;
66587;SDS011;53446;50.076;8.198;2022-08-21T20:09:56;8.13;;;2.00;;
66587;SDS011;53446;50.076;8.198;2022-08-21T20:11:56;6.80;;;2.10;;
66587;SDS011;53446;50.076;8.198;2022-08-21T20:13:58;4.88;;;1.90;;
66587;SDS011;53446;50.076;8.198;2022-08-21T20:15:59;8.30;;;2.20;;
66587;SDS011;53446;50.076;8.198;2022-08-21T20:18:00;5.65;;;1.80;;
66587;SDS011;53446;50.076;8.198;2022-08-21T20:20:02;5.07;;;1.88;;
66587;SDS011;53446;50.076;8.198;2022-08-21T20:22:03;5.75;;;1.90;;
66587;SDS011;53446;50.076;8.198;2022-08-21T20:24:04;4.85;;;1.75;;
66587;SDS011;53446;50.076;8.198;2022-08-21T20:26:05;5.30;;;1.93;;
66587;SDS011;53446;50.076;8.198;2022-08-21T20:28:06;5.45;;;1.80;;
66587;SDS011;53446;50.076;8.198;2022-08-21T20:30:07;8.27;;;2.10;;
66587;SDS011;53446;50.076;8.198;2022-08-21T20:32:08;5.07;;;1.90;;
66587;SDS011;53446;50.076;8.198;2022-08-21T20:34:08;5.67;;;2.10;;
66587;SDS011;53446;50.076;8.198;2022-08-21T20:36:09;5.47;;;1.80;;
66587;SDS011;53446;50.076;8.198;2022-08-21T20:38:09;6.53;;;1.77;;
66587;SDS011;53446;50.076;8.198;2022-08-21T20:40:10;5.10;;;1.70;;
66587;SDS011;53446;50.076;8.198;2022-08-21T20:42:11;5.47;;;1.63;;
66587;SDS011;53446;50.076;8.198;2022-08-21T20:44:12;4.18;;;1.70;;
66587;SDS011;53446;50.076;8.198;2022-08-21T20:46:18;5.68;;;1.90;;
66587;SDS011;53446;50.076;8.198;2022-08-21T20:48:27;5.82;;;1.90;;
66587;SDS011;53446;50.076;8.198;2022-08-21T20:50:29;5.82;;;1.73;;
66587;SDS011;53446;50.076;8.198;2022-08-21T20:52:32;5.60;;;1.65;;
66587;SDS011;53446;50.076;8.198;2022-08-21T20:54:36;6.82;;;1.65;;
66587;SDS011;53446;50.076;8.198;2022-08-21T20:59:00;5.10;;;1.67;;
66587;SDS011;53446;50.076;8.198;2022-08-21T21:01:06;4.68;;;1.55;;
66587;SDS011;53446;50.076;8.198;2022-08-21T21:03:09;4.32;;;1.33;;
66587;SDS011;53446;50.076;8.198;2022-08-21T21:05:28;5.25;;;1.70;;
66587;SDS011;53446;50.076;8.198;2022-08-21T21:07:36;5.65;;;1.60;;
66587;SDS011;53446;50.076;8.198;2022-08-21T21:09:41;6.25;;;1.50;;
66587;SDS011;53446;50.076;8.198;2022-08-21T21:11:46;7.65;;;1.80;;
66587;SDS011;53446;50.076;8.198;2022-08-21T21:13:55;5.45;;;1.95;;
66587;SDS011;53446;50.076;8.198;2022-08-21T21:16:01;6.90;;;1.70;;
66587;SDS011;53446;50.076;8.198;2022-08-21T21:18:11;4.15;;;1.65;;
66587;SDS011;53446;50.076;8.198;2022-08-21T21:20:25;5.22;;;1.65;;
66587;SDS011;53446;50.076;8.198;2022-08-21T21:22:34;4.47;;;1.63;;